createdAt,value
2018-06-17T00:03:17.744Z,18.50
2018-06-17T00:08:12.249Z,18.40
2018-06-17T00:13:06.792Z,18.40
2018-06-17T00:18:01.213Z,18.40
2018-06-17T00:22:55.667Z,18.40
2018-06-17T00:27:50.102Z,18.30
2018-06-17T00:32:44.509Z,18.10
2018-06-17T00:37:38.973Z,17.90
2018-06-17T00:42:33.402Z,17.90
2018-06-17T00:47:27.845Z,17.80
2018-06-17T00:52:22.283Z,17.70
2018-06-17T00:57:33.622Z,17.80
2018-06-17T01:02:28.140Z,17.80
2018-06-17T01:07:22.657Z,17.80
2018-06-17T01:12:17.160Z,17.50
2018-06-17T01:17:11.577Z,17.40
2018-06-17T01:22:06.137Z,17.30
2018-06-17T01:27:00.564Z,17.40
2018-06-17T01:31:54.991Z,17.40
2018-06-17T01:36:49.428Z,17.30
2018-06-17T01:41:43.839Z,17.40
2018-06-17T01:46:38.296Z,17.40
2018-06-17T01:51:32.749Z,17.30
2018-06-17T01:56:27.220Z,17.30
2018-06-17T02:01:21.678Z,17.20
2018-06-17T02:06:21.223Z,17.30
2018-06-17T02:11:20.873Z,17.30
2018-06-17T02:16:15.340Z,17.20
2018-06-17T02:21:09.819Z,17.20
2018-06-17T02:26:04.249Z,17.20
2018-06-17T02:30:58.788Z,17.10
2018-06-17T02:35:53.240Z,17.10
2018-06-17T02:40:47.682Z,17.20
2018-06-17T02:45:47.206Z,17.20
2018-06-17T02:50:46.817Z,17.20
2018-06-17T02:55:41.336Z,17.20
2018-06-17T03:00:35.790Z,17.20
2018-06-17T03:05:30.225Z,17.20
2018-06-17T03:10:24.700Z,17.20
2018-06-17T03:15:19.123Z,17.20
2018-06-17T03:20:13.536Z,17.10
2018-06-17T03:25:13.510Z,17.00
2018-06-17T03:30:13.082Z,16.90
2018-06-17T03:35:13.321Z,16.80
2018-06-17T03:40:07.765Z,16.90
2018-06-17T03:45:02.210Z,17.00
2018-06-17T03:49:56.618Z,16.90
2018-06-17T03:54:51.174Z,16.90
2018-06-17T03:59:45.613Z,17.40
2018-06-17T04:04:45.340Z,18.10
2018-06-17T04:09:39.728Z,18.40
2018-06-17T04:14:34.156Z,18.80
2018-06-17T04:24:22.695Z,19.50
2018-06-17T04:29:17.091Z,19.80
2018-06-17T04:34:11.566Z,19.90
2018-06-17T04:39:08.404Z,20.30
2018-06-17T04:44:02.847Z,20.60
2018-06-17T04:48:57.246Z,20.90
2018-06-17T04:53:51.656Z,20.80
2018-06-17T04:58:46.060Z,20.90
2018-06-17T05:03:40.473Z,21.40
2018-06-17T05:08:34.953Z,22.10
2018-06-17T05:13:29.368Z,22.70
2018-06-17T05:18:23.784Z,23.70
2018-06-17T05:23:18.211Z,24.30
2018-06-17T05:28:12.705Z,25.40
2018-06-17T05:33:07.110Z,26.70
2018-06-17T05:38:01.621Z,27.70
2018-06-17T05:42:56.033Z,28.30
2018-06-17T05:47:50.432Z,28.70
2018-06-17T05:52:44.831Z,27.70
2018-06-17T05:57:39.406Z,26.40
2018-06-17T06:07:28.017Z,24.50
2018-06-17T06:12:22.461Z,24.00
2018-06-17T06:17:16.899Z,23.60
2018-06-17T06:27:05.621Z,23.00
2018-06-17T06:32:00.025Z,22.80
2018-06-17T06:36:54.476Z,22.70
2018-06-17T06:41:48.912Z,23.40
2018-06-17T06:46:43.448Z,23.90
2018-06-17T06:51:37.855Z,23.90
2018-06-17T06:56:32.281Z,23.80
2018-06-17T07:01:43.510Z,23.90
2018-06-17T07:06:54.960Z,23.90
2018-06-17T07:11:49.360Z,24.30
2018-06-17T07:17:00.514Z,24.60
2018-06-17T07:23:24.356Z,24.40
2018-06-17T07:30:27.419Z,24.20
2018-06-17T07:35:21.912Z,24.90
2018-06-17T07:40:54.981Z,24.80
2018-06-17T07:45:49.427Z,24.70
2018-06-17T07:51:00.581Z,24.10
2018-06-17T07:55:54.989Z,24.00
2018-06-17T08:00:49.422Z,24.40
2018-06-17T08:05:43.857Z,24.50
2018-06-17T08:10:38.257Z,24.20
2018-06-17T08:15:32.654Z,24.20
2018-06-17T08:20:27.065Z,24.60
2018-06-17T08:25:21.539Z,25.00
2018-06-17T08:30:16.196Z,25.20
2018-06-17T08:35:10.619Z,25.10
2018-06-17T08:40:05.049Z,25.40
2018-06-17T08:44:59.457Z,25.80
2018-06-17T08:49:53.857Z,25.70
2018-06-17T08:54:48.280Z,25.70
2018-06-17T08:59:42.827Z,25.80
2018-06-17T09:04:37.278Z,26.00
2018-06-17T09:09:31.707Z,25.80
2018-06-17T09:14:26.171Z,25.70
2018-06-17T09:19:20.624Z,26.10
2018-06-17T09:24:15.075Z,26.60
2018-06-17T09:29:09.511Z,26.50
2018-06-17T09:34:03.928Z,26.30
2018-06-17T09:38:58.730Z,26.30
2018-06-17T09:43:53.191Z,26.10
2018-06-17T09:53:41.764Z,26.70
2018-06-17T09:58:36.413Z,27.00
2018-06-17T10:03:30.853Z,27.20
2018-06-17T10:08:25.279Z,27.50
2018-06-17T10:13:20.300Z,27.70
2018-06-17T10:18:15.825Z,27.50
2018-06-17T10:23:10.736Z,27.40
2018-06-17T10:28:05.884Z,27.70
2018-06-17T10:33:00.309Z,27.20
2018-06-17T10:37:54.727Z,27.10
2018-06-17T10:42:49.559Z,26.80
2018-06-17T10:47:44.794Z,25.90
2018-06-17T10:52:40.456Z,26.50
2018-06-17T10:57:34.988Z,26.90
2018-06-17T11:02:29.594Z,27.10
2018-06-17T11:07:24.092Z,27.50
2018-06-17T11:12:18.527Z,27.90
2018-06-17T11:17:13.043Z,28.20
2018-06-17T11:22:07.553Z,28.40
2018-06-17T11:27:01.973Z,29.00
2018-06-17T11:31:56.393Z,27.70
2018-06-17T11:36:50.845Z,27.00
2018-06-17T11:41:45.296Z,27.10
2018-06-17T11:46:39.808Z,27.10
2018-06-17T11:51:34.249Z,27.20
2018-06-17T11:56:28.674Z,27.60
2018-06-17T12:01:23.093Z,28.20
2018-06-17T12:06:17.531Z,28.90
2018-06-17T12:11:11.953Z,28.70
2018-06-17T12:16:06.397Z,28.30
2018-06-17T12:21:00.864Z,28.10
2018-06-17T12:25:55.301Z,27.30
2018-06-17T12:30:49.704Z,25.40
2018-06-17T12:35:44.160Z,24.10
2018-06-17T12:40:38.755Z,23.70
2018-06-17T12:45:33.142Z,23.30
2018-06-17T12:50:27.680Z,22.90
2018-06-17T12:55:22.096Z,22.60
2018-06-17T13:00:16.576Z,21.90
2018-06-17T13:05:11.056Z,21.50
2018-06-17T13:10:05.692Z,21.70
2018-06-17T13:15:00.177Z,22.10
2018-06-17T13:19:54.595Z,22.50
2018-06-17T13:24:49.040Z,22.90
2018-06-17T13:29:43.572Z,23.10
2018-06-17T13:34:37.987Z,23.40
2018-06-17T13:39:32.456Z,23.40
2018-06-17T13:44:26.973Z,23.80
2018-06-17T13:49:21.482Z,23.80
2018-06-17T13:54:15.901Z,24.10
2018-06-17T13:59:10.337Z,24.50
2018-06-17T14:04:04.818Z,24.80
2018-06-17T14:08:59.285Z,24.60
2018-06-17T14:13:53.708Z,24.30
2018-06-17T14:18:48.164Z,24.20
2018-06-17T14:23:42.760Z,24.20
2018-06-17T14:28:37.251Z,24.10
2018-06-17T14:33:31.639Z,24.10
2018-06-17T14:38:26.041Z,24.00
2018-06-17T14:43:25.431Z,23.90
2018-06-17T14:48:25.038Z,23.80
2018-06-17T14:53:19.611Z,23.70
2018-06-17T14:58:15.179Z,23.50
2018-06-17T15:03:09.714Z,23.30
2018-06-17T15:08:04.247Z,23.10
2018-06-17T15:12:58.859Z,23.10
2018-06-17T15:17:53.261Z,23.40
2018-06-17T15:22:47.780Z,23.50
2018-06-17T15:27:42.220Z,23.20
2018-06-17T15:37:40.900Z,23.30
2018-06-17T15:42:35.378Z,23.60
2018-06-17T15:47:29.816Z,23.90
2018-06-17T15:52:24.246Z,23.90
2018-06-17T15:57:18.720Z,24.10
2018-06-17T16:02:13.251Z,24.20
2018-06-17T16:07:07.697Z,24.00
2018-06-17T16:12:06.393Z,24.00
2018-06-17T16:17:05.929Z,23.90
2018-06-17T16:22:00.384Z,24.10
2018-06-17T16:26:54.848Z,23.80
2018-06-17T16:31:49.373Z,23.80
2018-06-17T16:36:43.816Z,23.40
2018-06-17T16:41:38.258Z,23.00
2018-06-17T16:46:32.778Z,22.90
2018-06-17T16:51:32.301Z,22.50
2018-06-17T16:56:31.869Z,22.40
2018-06-17T17:01:26.362Z,22.10
2018-06-17T17:06:20.787Z,22.00
2018-06-17T17:11:15.221Z,21.70
2018-06-17T17:16:10.037Z,21.00
2018-06-17T17:21:04.589Z,20.20
2018-06-17T17:25:59.520Z,19.60
2018-06-17T17:30:53.979Z,19.20
2018-06-17T17:35:53.595Z,18.80
2018-06-17T17:40:51.793Z,18.70
2018-06-17T17:45:51.257Z,18.70
2018-06-17T17:50:45.669Z,18.70
2018-06-17T17:55:40.085Z,18.70
2018-06-17T18:00:34.570Z,18.70
2018-06-17T18:05:29.001Z,18.70
2018-06-17T18:15:17.549Z,18.80
2018-06-17T18:20:12.047Z,18.80
2018-06-17T18:25:12.400Z,18.90
2018-06-17T18:30:12.135Z,19.00
2018-06-17T18:35:11.873Z,19.00
2018-06-17T18:40:06.365Z,19.10
2018-06-17T18:45:00.830Z,19.10
2018-06-17T18:49:55.298Z,19.00
2018-06-17T18:54:49.762Z,19.00
2018-06-17T18:59:44.213Z,19.00
2018-06-17T19:09:38.931Z,18.90
2018-06-17T19:14:38.457Z,19.00
2018-06-17T19:19:32.876Z,19.00
2018-06-17T19:24:27.280Z,19.00
2018-06-17T19:29:21.745Z,19.00
2018-06-17T19:34:16.178Z,18.90
2018-06-17T19:39:11.834Z,18.70
2018-06-17T19:44:06.432Z,18.60
2018-06-17T19:49:00.876Z,18.40
2018-06-17T19:54:00.521Z,18.40
2018-06-17T19:59:00.154Z,18.40
2018-06-17T20:03:54.562Z,18.40
2018-06-17T20:08:48.983Z,18.40
2018-06-17T20:13:43.447Z,18.50
2018-06-17T20:18:37.945Z,18.50
2018-06-17T20:23:32.361Z,18.50
2018-06-17T20:28:26.807Z,18.50
2018-06-17T20:33:26.391Z,18.40
2018-06-17T20:38:25.900Z,18.40
2018-06-17T20:43:25.395Z,18.40
2018-06-17T20:48:19.836Z,18.40
2018-06-17T20:53:14.236Z,18.50
2018-06-17T21:03:02.781Z,18.40
2018-06-17T21:07:57.240Z,18.40
2018-06-17T21:12:51.698Z,18.50
2018-06-17T21:17:48.838Z,18.40
2018-06-17T21:22:48.322Z,18.40
2018-06-17T21:32:37.837Z,18.30
2018-06-17T21:37:32.333Z,18.20
2018-06-17T21:42:26.773Z,18.20
2018-06-17T21:47:21.211Z,18.20
2018-06-17T21:52:15.628Z,18.20
2018-06-17T21:57:10.086Z,18.20
2018-06-17T22:02:04.588Z,18.10
2018-06-17T22:11:58.140Z,18.10
2018-06-17T22:16:57.786Z,18.10
2018-06-17T22:21:52.272Z,18.10
2018-06-17T22:26:46.663Z,18.20
2018-06-17T22:31:41.151Z,18.20
2018-06-17T22:36:35.572Z,18.20
2018-06-17T22:41:29.988Z,18.10
2018-06-17T22:46:24.400Z,18.00
2018-06-17T22:51:18.855Z,18.00
2018-06-17T22:56:18.532Z,18.00
2018-06-17T23:01:18.136Z,18.00
2018-06-17T23:06:17.749Z,18.00
2018-06-17T23:11:12.180Z,17.90
2018-06-17T23:16:06.654Z,17.90
2018-06-17T23:21:01.058Z,17.90
2018-06-17T23:25:55.467Z,17.90
2018-06-17T23:30:49.897Z,17.90
2018-06-17T23:35:44.302Z,17.90
2018-06-17T23:40:38.728Z,17.90
2018-06-17T23:45:33.113Z,17.80
2018-06-17T23:50:32.749Z,17.80
2018-06-17T23:55:32.396Z,17.80
